sensor_id;sensor_type;location;lat;lon;timestamp;temperature;humidity
3701;DHT22;1866;48.374;10.766;2022-08-01T00:01:52;18.40;1.00
3701;DHT22;1866;48.374;10.766;2022-08-01T00:04:19;18.20;1.00
3701;DHT22;1866;48.374;10.766;2022-08-01T00:06:48;18.20;1.00
3701;DHT22;1866;48.374;10.766;2022-08-01T00:09:15;18.00;1.00
3701;DHT22;1866;48.374;10.766;2022-08-01T00:11:48;17.80;1.00
3701;DHT22;1866;48.374;10.766;2022-08-01T00:14:23;17.80;1.00
3701;DHT22;1866;48.374;10.766;2022-08-01T00:16:50;17.90;1.00
3701;DHT22;1866;48.374;10.766;2022-08-01T00:19:17;18.00;1.00
3701;DHT22;1866;48.374;10.766;2022-08-01T00:21:44;18.00;1.00
3701;DHT22;1866;48.374;10.766;2022-08-01T00:24:14;17.90;1.00
3701;DHT22;1866;48.374;10.766;2022-08-01T00:26:45;17.80;1.00
3701;DHT22;1866;48.374;10.766;2022-08-01T00:29:14;17.80;1.00
3701;DHT22;1866;48.374;10.766;2022-08-01T00:31:44;17.80;1.00
3701;DHT22;1866;48.374;10.766;2022-08-01T00:34:11;17.70;1.00
3701;DHT22;1866;48.374;10.766;2022-08-01T00:36:38;17.70;1.00
3701;DHT22;1866;48.374;10.766;2022-08-01T00:39:14;17.60;1.00
3701;DHT22;1866;48.374;10.766;2022-08-01T00:41:44;17.70;1.00
3701;DHT22;1866;48.374;10.766;2022-08-01T00:44:11;17.60;1.00
3701;DHT22;1866;48.374;10.766;2022-08-01T00:46:38;17.60;1.00
3701;DHT22;1866;48.374;10.766;2022-08-01T00:49:05;17.60;1.00
3701;DHT22;1866;48.374;10.766;2022-08-01T00:51:33;17.60;1.00
3701;DHT22;1866;48.374;10.766;2022-08-01T00:54:00;17.50;1.00
3701;DHT22;1866;48.374;10.766;2022-08-01T00:56:29;17.50;1.00
3701;DHT22;1866;48.374;10.766;2022-08-01T00:58:57;17.40;1.00
3701;DHT22;1866;48.374;10.766;2022-08-01T01:01:24;17.30;1.00
3701;DHT22;1866;48.374;10.766;2022-08-01T01:03:52;17.10;1.00
3701;DHT22;1866;48.374;10.766;2022-08-01T01:06:26;17.00;6.70
3701;DHT22;1866;48.374;10.766;2022-08-01T01:11:49;17.10;1.00
3701;DHT22;1866;48.374;10.766;2022-08-01T01:14:29;16.90;52.40
3701;DHT22;1866;48.374;10.766;2022-08-01T01:16:58;17.00;42.30
3701;DHT22;1866;48.374;10.766;2022-08-01T01:19:45;16.90;54.90
3701;DHT22;1866;48.374;10.766;2022-08-01T01:22:27;16.90;65.30
3701;DHT22;1866;48.374;10.766;2022-08-01T01:25:08;16.80;90.50
3701;DHT22;1866;48.374;10.766;2022-08-01T01:27:45;16.90;72.10
3701;DHT22;1866;48.374;10.766;2022-08-01T01:30:15;16.80;65.30
3701;DHT22;1866;48.374;10.766;2022-08-01T01:32:44;16.70;94.50
3701;DHT22;1866;48.374;10.766;2022-08-01T01:35:17;16.80;67.00
3701;DHT22;1866;48.374;10.766;2022-08-01T01:37:46;16.90;40.30
3701;DHT22;1866;48.374;10.766;2022-08-01T01:40:15;16.90;17.10
3701;DHT22;1866;48.374;10.766;2022-08-01T01:42:44;16.90;16.60
3701;DHT22;1866;48.374;10.766;2022-08-01T01:45:12;16.80;28.30
3701;DHT22;1866;48.374;10.766;2022-08-01T01:47:41;16.90;19.30
3701;DHT22;1866;48.374;10.766;2022-08-01T01:50:11;16.90;1.00
3701;DHT22;1866;48.374;10.766;2022-08-01T01:52:41;16.80;1.00
3701;DHT22;1866;48.374;10.766;2022-08-01T01:55:09;16.60;77.10
3701;DHT22;1866;48.374;10.766;2022-08-01T01:57:40;16.60;99.90
3701;DHT22;1866;48.374;10.766;2022-08-01T02:00:09;16.40;99.90
3701;DHT22;1866;48.374;10.766;2022-08-01T02:02:37;16.50;99.90
3701;DHT22;1866;48.374;10.766;2022-08-01T02:05:10;16.50;99.90
3701;DHT22;1866;48.374;10.766;2022-08-01T02:07:39;16.60;48.80
3701;DHT22;1866;48.374;10.766;2022-08-01T02:10:09;16.70;23.00
3701;DHT22;1866;48.374;10.766;2022-08-01T02:12:39;16.80;29.20
3701;DHT22;1866;48.374;10.766;2022-08-01T02:15:08;16.80;20.30
3701;DHT22;1866;48.374;10.766;2022-08-01T02:17:41;16.40;54.80
3701;DHT22;1866;48.374;10.766;2022-08-01T02:20:23;16.30;99.90
3701;DHT22;1866;48.374;10.766;2022-08-01T02:22:59;16.60;88.90
3701;DHT22;1866;48.374;10.766;2022-08-01T02:25:32;16.70;13.30
3701;DHT22;1866;48.374;10.766;2022-08-01T02:28:04;16.70;6.90
3701;DHT22;1866;48.374;10.766;2022-08-01T02:30:34;16.60;1.00
3701;DHT22;1866;48.374;10.766;2022-08-01T02:33:05;16.70;1.00
3701;DHT22;1866;48.374;10.766;2022-08-01T02:35:35;16.50;22.00
3701;DHT22;1866;48.374;10.766;2022-08-01T02:38:05;16.60;1.00
3701;DHT22;1866;48.374;10.766;2022-08-01T02:40:34;16.50;3.50
3701;DHT22;1866;48.374;10.766;2022-08-01T02:43:03;16.60;1.00
3701;DHT22;1866;48.374;10.766;2022-08-01T02:45:32;16.70;1.00
3701;DHT22;1866;48.374;10.766;2022-08-01T02:48:05;16.50;6.90
3701;DHT22;1866;48.374;10.766;2022-08-01T02:50:36;16.30;72.00
3701;DHT22;1866;48.374;10.766;2022-08-01T02:53:05;16.30;26.60
3701;DHT22;1866;48.374;10.766;2022-08-01T02:55:34;16.20;46.40
3701;DHT22;1866;48.374;10.766;2022-08-01T02:58:03;16.10;67.20
3701;DHT22;1866;48.374;10.766;2022-08-01T03:00:30;16.20;44.40
3701;DHT22;1866;48.374;10.766;2022-08-01T03:02:58;16.40;1.00
3701;DHT22;1866;48.374;10.766;2022-08-01T03:05:26;16.60;1.00
3701;DHT22;1866;48.374;10.766;2022-08-01T03:07:57;16.50;1.00
3701;DHT22;1866;48.374;10.766;2022-08-01T03:10:30;16.50;1.00
3701;DHT22;1866;48.374;10.766;2022-08-01T03:12:59;16.50;1.00
3701;DHT22;1866;48.374;10.766;2022-08-01T03:15:27;16.50;1.00
3701;DHT22;1866;48.374;10.766;2022-08-01T03:18:00;16.50;1.00
3701;DHT22;1866;48.374;10.766;2022-08-01T03:20:30;16.60;1.00
3701;DHT22;1866;48.374;10.766;2022-08-01T03:23:03;16.60;1.00
3701;DHT22;1866;48.374;10.766;2022-08-01T03:25:31;16.60;1.00
3701;DHT22;1866;48.374;10.766;2022-08-01T03:28:02;16.60;1.00
3701;DHT22;1866;48.374;10.766;2022-08-01T03:30:30;16.50;1.00
3701;DHT22;1866;48.374;10.766;2022-08-01T03:32:58;16.50;1.00
3701;DHT22;1866;48.374;10.766;2022-08-01T03:35:33;16.50;1.00
3701;DHT22;1866;48.374;10.766;2022-08-01T03:38:02;16.50;1.00
3701;DHT22;1866;48.374;10.766;2022-08-01T03:40:35;16.50;1.00
3701;DHT22;1866;48.374;10.766;2022-08-01T03:43:05;16.50;1.00
3701;DHT22;1866;48.374;10.766;2022-08-01T03:45:36;16.60;1.00
3701;DHT22;1866;48.374;10.766;2022-08-01T03:48:09;16.70;1.00
3701;DHT22;1866;48.374;10.766;2022-08-01T03:50:41;16.70;1.00
3701;DHT22;1866;48.374;10.766;2022-08-01T03:53:11;16.80;1.00
3701;DHT22;1866;48.374;10.766;2022-08-01T03:55:39;16.70;1.00
3701;DHT22;1866;48.374;10.766;2022-08-01T03:58:11;16.60;1.00
3701;DHT22;1866;48.374;10.766;2022-08-01T04:00:40;16.40;1.00
3701;DHT22;1866;48.374;10.766;2022-08-01T04:03:09;16.30;1.00
3701;DHT22;1866;48.374;10.766;2022-08-01T04:05:36;16.20;1.00
3701;DHT22;1866;48.374;10.766;2022-08-01T04:08:04;16.10;1.00
3701;DHT22;1866;48.374;10.766;2022-08-01T04:10:32;16.10;36.50
3701;DHT22;1866;48.374;10.766;2022-08-01T04:12:59;16.40;1.00
3701;DHT22;1866;48.374;10.766;2022-08-01T04:15:26;16.40;1.00
3701;DHT22;1866;48.374;10.766;2022-08-01T04:17:53;16.00;16.70
3701;DHT22;1866;48.374;10.766;2022-08-01T04:20:21;16.00;92.60
3701;DHT22;1866;48.374;10.766;2022-08-01T04:22:50;15.90;99.90
3701;DHT22;1866;48.374;10.766;2022-08-01T04:25:21;16.00;99.90
3701;DHT22;1866;48.374;10.766;2022-08-01T04:27:50;16.10;99.90
3701;DHT22;1866;48.374;10.766;2022-08-01T04:30:22;16.10;99.90
3701;DHT22;1866;48.374;10.766;2022-08-01T04:32:51;16.40;32.10
3701;DHT22;1866;48.374;10.766;2022-08-01T04:35:20;16.60;1.00
3701;DHT22;1866;48.374;10.766;2022-08-01T04:37:48;18.40;1.00
3701;DHT22;1866;48.374;10.766;2022-08-01T04:40:17;20.50;1.00
3701;DHT22;1866;48.374;10.766;2022-08-01T04:42:49;20.90;99.90
3701;DHT22;1866;48.374;10.766;2022-08-01T04:45:19;20.70;99.90
3701;DHT22;1866;48.374;10.766;2022-08-01T04:47:47;19.80;99.90
3701;DHT22;1866;48.374;10.766;2022-08-01T04:50:15;19.90;99.90
3701;DHT22;1866;48.374;10.766;2022-08-01T04:52:42;19.80;99.90
3701;DHT22;1866;48.374;10.766;2022-08-01T04:55:09;20.10;99.90
3701;DHT22;1866;48.374;10.766;2022-08-01T04:57:39;21.80;99.90
3701;DHT22;1866;48.374;10.766;2022-08-01T05:00:08;21.80;99.90
3701;DHT22;1866;48.374;10.766;2022-08-01T05:02:36;23.30;99.90
3701;DHT22;1866;48.374;10.766;2022-08-01T05:05:04;22.70;99.90
3701;DHT22;1866;48.374;10.766;2022-08-01T05:07:32;23.30;99.90
3701;DHT22;1866;48.374;10.766;2022-08-01T05:10:06;23.90;99.90
3701;DHT22;1866;48.374;10.766;2022-08-01T05:12:33;24.00;99.90
3701;DHT22;1866;48.374;10.766;2022-08-01T05:15:03;24.70;99.90
3701;DHT22;1866;48.374;10.766;2022-08-01T05:17:33;24.80;99.90
3701;DHT22;1866;48.374;10.766;2022-08-01T05:20:00;24.50;99.90
3701;DHT22;1866;48.374;10.766;2022-08-01T05:22:27;22.20;99.90
3701;DHT22;1866;48.374;10.766;2022-08-01T05:24:54;20.60;99.90
3701;DHT22;1866;48.374;10.766;2022-08-01T05:27:22;20.10;99.90
3701;DHT22;1866;48.374;10.766;2022-08-01T05:29:49;19.80;99.90
3701;DHT22;1866;48.374;10.766;2022-08-01T05:32:16;19.40;99.90
3701;DHT22;1866;48.374;10.766;2022-08-01T05:34:44;19.60;99.90
3701;DHT22;1866;48.374;10.766;2022-08-01T05:37:11;20.00;99.90
3701;DHT22;1866;48.374;10.766;2022-08-01T05:39:38;20.10;99.90
3701;DHT22;1866;48.374;10.766;2022-08-01T05:42:05;20.40;99.90
3701;DHT22;1866;48.374;10.766;2022-08-01T05:44:32;20.80;99.90
3701;DHT22;1866;48.374;10.766;2022-08-01T05:46:58;21.10;99.90
3701;DHT22;1866;48.374;10.766;2022-08-01T05:49:25;21.20;99.90
3701;DHT22;1866;48.374;10.766;2022-08-01T05:51:57;21.10;99.90
3701;DHT22;1866;48.374;10.766;2022-08-01T05:54:24;21.30;99.90
3701;DHT22;1866;48.374;10.766;2022-08-01T05:56:51;21.40;99.90
3701;DHT22;1866;48.374;10.766;2022-08-01T05:59:25;21.40;99.90
3701;DHT22;1866;48.374;10.766;2022-08-01T06:02:01;21.60;99.90
3701;DHT22;1866;48.374;10.766;2022-08-01T06:04:28;21.50;99.90
3701;DHT22;1866;48.374;10.766;2022-08-01T06:06:59;21.40;99.90
3701;DHT22;1866;48.374;10.766;2022-08-01T06:09:26;21.60;99.90
3701;DHT22;1866;48.374;10.766;2022-08-01T06:11:56;21.60;99.90
3701;DHT22;1866;48.374;10.766;2022-08-01T06:14:26;21.40;99.90
3701;DHT22;1866;48.374;10.766;2022-08-01T06:16:59;21.50;99.90
3701;DHT22;1866;48.374;10.766;2022-08-01T06:19:26;21.70;99.90
3701;DHT22;1866;48.374;10.766;2022-08-01T06:21:53;21.60;99.90
3701;DHT22;1866;48.374;10.766;2022-08-01T06:24:24;21.90;99.90
3701;DHT22;1866;48.374;10.766;2022-08-01T06:26:52;22.10;99.90
3701;DHT22;1866;48.374;10.766;2022-08-01T06:29:22;22.00;99.90
3701;DHT22;1866;48.374;10.766;2022-08-01T06:31:51;21.70;99.90
3701;DHT22;1866;48.374;10.766;2022-08-01T06:34:26;21.80;99.90
3701;DHT22;1866;48.374;10.766;2022-08-01T06:36:53;22.40;99.90
3701;DHT22;1866;48.374;10.766;2022-08-01T06:39:20;22.10;99.90
3701;DHT22;1866;48.374;10.766;2022-08-01T06:41:49;22.30;99.90
3701;DHT22;1866;48.374;10.766;2022-08-01T06:44:15;22.50;99.90
3701;DHT22;1866;48.374;10.766;2022-08-01T06:46:42;22.20;99.90
3701;DHT22;1866;48.374;10.766;2022-08-01T06:49:09;22.10;99.90
3701;DHT22;1866;48.374;10.766;2022-08-01T06:51:36;22.10;99.90
3701;DHT22;1866;48.374;10.766;2022-08-01T06:54:03;22.10;99.90
3701;DHT22;1866;48.374;10.766;2022-08-01T06:56:31;21.60;99.90
3701;DHT22;1866;48.374;10.766;2022-08-01T06:59:02;21.50;99.90
3701;DHT22;1866;48.374;10.766;2022-08-01T07:01:29;21.30;99.90
3701;DHT22;1866;48.374;10.766;2022-08-01T07:03:56;21.40;99.90
3701;DHT22;1866;48.374;10.766;2022-08-01T07:06:24;21.50;99.90
3701;DHT22;1866;48.374;10.766;2022-08-01T07:08:51;22.00;99.90
3701;DHT22;1866;48.374;10.766;2022-08-01T07:11:18;22.20;99.90
3701;DHT22;1866;48.374;10.766;2022-08-01T07:13:46;22.30;99.90
3701;DHT22;1866;48.374;10.766;2022-08-01T07:16:17;22.50;99.90
3701;DHT22;1866;48.374;10.766;2022-08-01T07:18:44;22.50;99.90
3701;DHT22;1866;48.374;10.766;2022-08-01T07:21:11;22.40;99.90
3701;DHT22;1866;48.374;10.766;2022-08-01T07:23:38;22.50;99.90
3701;DHT22;1866;48.374;10.766;2022-08-01T07:26:05;22.60;99.90
3701;DHT22;1866;48.374;10.766;2022-08-01T07:28:37;22.60;99.90
3701;DHT22;1866;48.374;10.766;2022-08-01T07:31:07;22.70;99.90
3701;DHT22;1866;48.374;10.766;2022-08-01T07:33:35;22.60;99.90
3701;DHT22;1866;48.374;10.766;2022-08-01T07:36:03;22.70;99.90
3701;DHT22;1866;48.374;10.766;2022-08-01T07:38:31;22.60;99.90
3701;DHT22;1866;48.374;10.766;2022-08-01T07:40:57;22.90;99.90
3701;DHT22;1866;48.374;10.766;2022-08-01T07:43:48;23.10;99.90
3701;DHT22;1866;48.374;10.766;2022-08-01T07:46:16;23.30;99.90
3701;DHT22;1866;48.374;10.766;2022-08-01T07:48:44;23.30;99.90
3701;DHT22;1866;48.374;10.766;2022-08-01T07:51:11;23.30;99.90
3701;DHT22;1866;48.374;10.766;2022-08-01T07:53:38;23.30;99.90
3701;DHT22;1866;48.374;10.766;2022-08-01T07:56:05;23.30;99.90
3701;DHT22;1866;48.374;10.766;2022-08-01T07:58:32;23.30;99.90
3701;DHT22;1866;48.374;10.766;2022-08-01T08:00:59;23.20;99.90
3701;DHT22;1866;48.374;10.766;2022-08-01T08:03:26;23.30;99.90
3701;DHT22;1866;48.374;10.766;2022-08-01T08:05:54;23.40;99.90
3701;DHT22;1866;48.374;10.766;2022-08-01T08:08:22;23.10;99.90
3701;DHT22;1866;48.374;10.766;2022-08-01T08:10:49;23.10;99.90
3701;DHT22;1866;48.374;10.766;2022-08-01T08:13:16;23.40;99.90
3701;DHT22;1866;48.374;10.766;2022-08-01T08:15:43;23.50;99.90
3701;DHT22;1866;48.374;10.766;2022-08-01T08:18:10;23.40;99.90
3701;DHT22;1866;48.374;10.766;2022-08-01T08:20:37;23.60;99.90
3701;DHT22;1866;48.374;10.766;2022-08-01T08:23:05;23.60;99.90
3701;DHT22;1866;48.374;10.766;2022-08-01T08:25:52;23.80;99.90
3701;DHT22;1866;48.374;10.766;2022-08-01T08:28:18;24.20;99.90
3701;DHT22;1866;48.374;10.766;2022-08-01T08:30:45;24.00;99.90
3701;DHT22;1866;48.374;10.766;2022-08-01T08:33:12;24.00;99.90
3701;DHT22;1866;48.374;10.766;2022-08-01T08:35:39;24.20;99.90
3701;DHT22;1866;48.374;10.766;2022-08-01T08:38:08;23.90;99.90
3701;DHT22;1866;48.374;10.766;2022-08-01T08:40:35;24.10;99.90
3701;DHT22;1866;48.374;10.766;2022-08-01T08:43:05;24.40;99.90
3701;DHT22;1866;48.374;10.766;2022-08-01T08:45:32;24.30;99.90
3701;DHT22;1866;48.374;10.766;2022-08-01T08:47:59;24.80;99.90
3701;DHT22;1866;48.374;10.766;2022-08-01T08:50:28;24.80;99.90
3701;DHT22;1866;48.374;10.766;2022-08-01T08:52:55;24.90;99.90
3701;DHT22;1866;48.374;10.766;2022-08-01T08:55:24;24.70;99.90
3701;DHT22;1866;48.374;10.766;2022-08-01T08:57:53;24.40;99.90
3701;DHT22;1866;48.374;10.766;2022-08-01T09:00:20;24.20;99.90
3701;DHT22;1866;48.374;10.766;2022-08-01T09:02:48;24.40;99.90
3701;DHT22;1866;48.374;10.766;2022-08-01T09:05:15;24.40;99.90
3701;DHT22;1866;48.374;10.766;2022-08-01T09:07:44;24.20;99.90
3701;DHT22;1866;48.374;10.766;2022-08-01T09:10:11;24.60;99.90
3701;DHT22;1866;48.374;10.766;2022-08-01T09:12:39;24.20;99.90
3701;DHT22;1866;48.374;10.766;2022-08-01T09:15:07;24.50;99.90
3701;DHT22;1866;48.374;10.766;2022-08-01T09:17:41;24.70;99.90
3701;DHT22;1866;48.374;10.766;2022-08-01T09:20:22;24.20;99.90
3701;DHT22;1866;48.374;10.766;2022-08-01T09:22:50;24.20;99.90
3701;DHT22;1866;48.374;10.766;2022-08-01T09:25:17;24.30;99.90
3701;DHT22;1866;48.374;10.766;2022-08-01T09:27:45;24.70;99.90
3701;DHT22;1866;48.374;10.766;2022-08-01T09:30:14;24.80;99.90
3701;DHT22;1866;48.374;10.766;2022-08-01T09:32:53;24.60;99.90
3701;DHT22;1866;48.374;10.766;2022-08-01T09:35:25;24.70;99.90
3701;DHT22;1866;48.374;10.766;2022-08-01T09:38:11;24.60;99.90
3701;DHT22;1866;48.374;10.766;2022-08-01T09:40:49;24.60;99.90
3701;DHT22;1866;48.374;10.766;2022-08-01T09:43:19;24.60;99.90
3701;DHT22;1866;48.374;10.766;2022-08-01T09:45:46;24.50;99.90
3701;DHT22;1866;48.374;10.766;2022-08-01T09:48:13;24.40;99.90
3701;DHT22;1866;48.374;10.766;2022-08-01T09:50:42;24.40;99.90
3701;DHT22;1866;48.374;10.766;2022-08-01T09:53:09;24.70;99.90
3701;DHT22;1866;48.374;10.766;2022-08-01T09:55:37;24.50;99.90
3701;DHT22;1866;48.374;10.766;2022-08-01T09:58:04;24.30;99.90
3701;DHT22;1866;48.374;10.766;2022-08-01T10:00:34;24.50;99.90
3701;DHT22;1866;48.374;10.766;2022-08-01T10:03:19;24.80;99.90
3701;DHT22;1866;48.374;10.766;2022-08-01T10:05:47;25.30;99.90
3701;DHT22;1866;48.374;10.766;2022-08-01T10:08:14;25.10;99.90
3701;DHT22;1866;48.374;10.766;2022-08-01T10:10:43;24.80;99.90
3701;DHT22;1866;48.374;10.766;2022-08-01T10:13:30;25.10;99.90
3701;DHT22;1866;48.374;10.766;2022-08-01T10:16:00;25.00;99.90
3701;DHT22;1866;48.374;10.766;2022-08-01T10:18:29;24.90;99.90
3701;DHT22;1866;48.374;10.766;2022-08-01T10:20:57;25.20;99.90
3701;DHT22;1866;48.374;10.766;2022-08-01T10:23:25;25.30;99.90
3701;DHT22;1866;48.374;10.766;2022-08-01T10:25:54;25.00;99.90
3701;DHT22;1866;48.374;10.766;2022-08-01T10:28:22;25.20;99.90
3701;DHT22;1866;48.374;10.766;2022-08-01T10:30:49;25.20;99.90
3701;DHT22;1866;48.374;10.766;2022-08-01T10:33:18;25.80;99.90
3701;DHT22;1866;48.374;10.766;2022-08-01T10:35:48;25.60;99.90
3701;DHT22;1866;48.374;10.766;2022-08-01T10:38:14;25.30;99.90
3701;DHT22;1866;48.374;10.766;2022-08-01T10:40:42;25.20;99.90
3701;DHT22;1866;48.374;10.766;2022-08-01T10:43:10;25.20;99.90
3701;DHT22;1866;48.374;10.766;2022-08-01T10:45:37;25.30;99.90
3701;DHT22;1866;48.374;10.766;2022-08-01T10:48:11;25.60;99.90
3701;DHT22;1866;48.374;10.766;2022-08-01T10:50:44;25.80;99.90
3701;DHT22;1866;48.374;10.766;2022-08-01T10:53:14;25.70;99.90
3701;DHT22;1866;48.374;10.766;2022-08-01T10:55:47;26.20;99.90
3701;DHT22;1866;48.374;10.766;2022-08-01T10:58:20;26.50;99.90
3701;DHT22;1866;48.374;10.766;2022-08-01T11:00:47;26.60;99.90
3701;DHT22;1866;48.374;10.766;2022-08-01T11:03:14;27.00;99.90
3701;DHT22;1866;48.374;10.766;2022-08-01T11:05:43;27.20;99.90
3701;DHT22;1866;48.374;10.766;2022-08-01T11:08:21;26.90;99.90
3701;DHT22;1866;48.374;10.766;2022-08-01T11:10:48;26.30;99.90
3701;DHT22;1866;48.374;10.766;2022-08-01T11:16:27;25.70;99.90
3701;DHT22;1866;48.374;10.766;2022-08-01T11:18:54;25.40;99.90
3701;DHT22;1866;48.374;10.766;2022-08-01T11:21:58;25.30;99.90
3701;DHT22;1866;48.374;10.766;2022-08-01T11:25:17;25.20;99.90
3701;DHT22;1866;48.374;10.766;2022-08-01T11:27:44;24.80;99.90
3701;DHT22;1866;48.374;10.766;2022-08-01T11:30:24;24.90;99.90
3701;DHT22;1866;48.374;10.766;2022-08-01T11:32:53;24.90;99.90
3701;DHT22;1866;48.374;10.766;2022-08-01T11:35:21;25.00;99.90
3701;DHT22;1866;48.374;10.766;2022-08-01T11:37:51;24.90;99.90
3701;DHT22;1866;48.374;10.766;2022-08-01T11:40:20;25.10;99.90
3701;DHT22;1866;48.374;10.766;2022-08-01T11:42:48;25.10;99.90
3701;DHT22;1866;48.374;10.766;2022-08-01T11:45:15;25.10;99.90
3701;DHT22;1866;48.374;10.766;2022-08-01T11:47:47;25.00;99.90
3701;DHT22;1866;48.374;10.766;2022-08-01T11:50:31;25.40;99.90
3701;DHT22;1866;48.374;10.766;2022-08-01T11:53:01;25.50;99.90
3701;DHT22;1866;48.374;10.766;2022-08-01T11:55:28;25.50;99.90
3701;DHT22;1866;48.374;10.766;2022-08-01T11:58:02;25.40;99.90
3701;DHT22;1866;48.374;10.766;2022-08-01T12:00:29;25.30;99.90
3701;DHT22;1866;48.374;10.766;2022-08-01T12:02:58;25.20;99.90
3701;DHT22;1866;48.374;10.766;2022-08-01T12:05:26;25.20;99.90
3701;DHT22;1866;48.374;10.766;2022-08-01T12:07:54;25.20;99.90
3701;DHT22;1866;48.374;10.766;2022-08-01T12:10:25;25.30;99.90
3701;DHT22;1866;48.374;10.766;2022-08-01T12:12:55;25.30;99.90
3701;DHT22;1866;48.374;10.766;2022-08-01T12:15:24;25.30;99.90
3701;DHT22;1866;48.374;10.766;2022-08-01T12:17:56;25.50;99.90
3701;DHT22;1866;48.374;10.766;2022-08-01T12:20:26;25.40;99.90
3701;DHT22;1866;48.374;10.766;2022-08-01T12:22:55;25.40;99.90
3701;DHT22;1866;48.374;10.766;2022-08-01T12:25:23;25.30;99.90
3701;DHT22;1866;48.374;10.766;2022-08-01T12:27:50;25.30;99.90
3701;DHT22;1866;48.374;10.766;2022-08-01T12:30:19;25.30;99.90
3701;DHT22;1866;48.374;10.766;2022-08-01T12:32:48;25.50;99.90
3701;DHT22;1866;48.374;10.766;2022-08-01T12:35:16;25.70;99.90
3701;DHT22;1866;48.374;10.766;2022-08-01T12:37:45;25.70;99.90
3701;DHT22;1866;48.374;10.766;2022-08-01T12:40:15;25.80;99.90
3701;DHT22;1866;48.374;10.766;2022-08-01T12:42:48;25.80;99.90
3701;DHT22;1866;48.374;10.766;2022-08-01T12:45:19;25.90;99.90
3701;DHT22;1866;48.374;10.766;2022-08-01T12:47:48;26.00;99.90
3701;DHT22;1866;48.374;10.766;2022-08-01T12:50:25;26.40;99.90
3701;DHT22;1866;48.374;10.766;2022-08-01T12:52:55;26.90;99.90
3701;DHT22;1866;48.374;10.766;2022-08-01T12:55:23;27.10;99.90
3701;DHT22;1866;48.374;10.766;2022-08-01T12:58:04;27.20;99.90
3701;DHT22;1866;48.374;10.766;2022-08-01T13:00:31;27.30;99.90
3701;DHT22;1866;48.374;10.766;2022-08-01T13:03:03;27.40;99.90
3701;DHT22;1866;48.374;10.766;2022-08-01T13:05:44;27.20;99.90
3701;DHT22;1866;48.374;10.766;2022-08-01T13:08:11;27.50;99.90
3701;DHT22;1866;48.374;10.766;2022-08-01T13:10:39;27.50;99.90
3701;DHT22;1866;48.374;10.766;2022-08-01T13:13:08;27.40;99.90
3701;DHT22;1866;48.374;10.766;2022-08-01T13:15:36;27.20;99.90
3701;DHT22;1866;48.374;10.766;2022-08-01T13:18:22;26.60;99.90
3701;DHT22;1866;48.374;10.766;2022-08-01T13:20:50;26.50;99.90
3701;DHT22;1866;48.374;10.766;2022-08-01T13:23:18;26.30;99.90
3701;DHT22;1866;48.374;10.766;2022-08-01T13:25:47;26.20;99.90
3701;DHT22;1866;48.374;10.766;2022-08-01T13:28:19;26.10;99.90
3701;DHT22;1866;48.374;10.766;2022-08-01T13:30:57;26.00;99.90
3701;DHT22;1866;48.374;10.766;2022-08-01T13:36:30;25.40;99.90
3701;DHT22;1866;48.374;10.766;2022-08-01T13:38:56;24.60;99.90
3701;DHT22;1866;48.374;10.766;2022-08-01T13:41:41;23.00;1.00
3701;DHT22;1866;48.374;10.766;2022-08-01T13:44:09;22.00;1.00
3701;DHT22;1866;48.374;10.766;2022-08-01T13:46:37;21.30;43.60
3701;DHT22;1866;48.374;10.766;2022-08-01T13:49:05;20.30;99.90
3701;DHT22;1866;48.374;10.766;2022-08-01T13:51:32;19.30;1.00
3701;DHT22;1866;48.374;10.766;2022-08-01T13:53:59;19.00;1.00
3701;DHT22;1866;48.374;10.766;2022-08-01T13:56:27;18.00;1.00
3701;DHT22;1866;48.374;10.766;2022-08-01T13:58:54;16.90;1.00
3701;DHT22;1866;48.374;10.766;2022-08-01T14:01:25;16.70;1.00
3701;DHT22;1866;48.374;10.766;2022-08-01T14:03:52;17.40;99.90
3701;DHT22;1866;48.374;10.766;2022-08-01T14:06:19;17.50;1.00
3701;DHT22;1866;48.374;10.766;2022-08-01T14:09:09;17.40;1.00
3701;DHT22;1866;48.374;10.766;2022-08-01T14:11:36;17.40;1.00
3701;DHT22;1866;48.374;10.766;2022-08-01T14:14:03;17.40;99.90
3701;DHT22;1866;48.374;10.766;2022-08-01T14:16:31;17.50;99.90
3701;DHT22;1866;48.374;10.766;2022-08-01T14:18:58;17.60;1.00
3701;DHT22;1866;48.374;10.766;2022-08-01T14:21:25;17.80;1.00
3701;DHT22;1866;48.374;10.766;2022-08-01T14:23:53;18.20;99.90
3701;DHT22;1866;48.374;10.766;2022-08-01T14:26:20;18.10;93.80
3701;DHT22;1866;48.374;10.766;2022-08-01T14:28:47;18.00;1.00
3701;DHT22;1866;48.374;10.766;2022-08-01T14:31:13;17.80;1.00
3701;DHT22;1866;48.374;10.766;2022-08-01T14:33:42;17.60;1.00
3701;DHT22;1866;48.374;10.766;2022-08-01T14:36:08;18.10;1.00
3701;DHT22;1866;48.374;10.766;2022-08-01T14:38:35;18.50;1.00
